Time;durP1;ratioP1;P1;durP2;ratioP2;P2;SDS_P1;SDS_P2;PMS_P1;PMS_P2;Temp;Humidity;BMP_temperature;BMP_pressure;BME280_temperature;BME280_humidity;BME280_pressure;Samples;Min_cycle;Max_cycle;Signal;HPM_P1;HPM_P2
2022/03/02 00:01:37;;;;;;;28.08;17.60;;;;;;;;;;4858911;29;20075;-76
2022/03/02 00:04:03;;;;;;;20.67;10.43;;;;;;;;;;4858352;29;20128;-76
2022/03/02 00:06:29;;;;;;;16.73;8.88;;;;;;;;;;4858664;29;20025;-75
2022/03/02 00:08:55;;;;;;;19.75;9.60;;;;;;;;;;4862560;29;20042;-76
2022/03/02 00:11:21;;;;;;;18.33;9.93;;;;;;;;;;4858730;29;20068;-76
2022/03/02 00:13:47;;;;;;;22.60;11.43;;;;;;;;;;4858596;29;20065;-75
2022/03/02 00:16:14;;;;;;;20.20;10.98;;;;;;;;;;4858721;29;20112;-76
2022/03/02 00:18:40;;;;;;;22.08;10.02;;;;;;;;;;4861191;29;20053;-76
2022/03/02 00:21:06;;;;;;;17.88;9.65;;;;;;;;;;4858199;29;20076;-76
2022/03/02 00:23:32;;;;;;;20.48;10.80;;;;;;;;;;4858666;29;20464;-76
2022/03/02 00:25:58;;;;;;;23.33;9.65;;;;;;;;;;4858360;29;20045;-76
2022/03/02 00:28:25;;;;;;;16.42;9.27;;;;;;;;;;4858464;29;20081;-76
2022/03/02 00:30:51;;;;;;;20.75;10.27;;;;;;;;;;4864629;29;20109;-76
2022/03/02 00:33:17;;;;;;;21.60;10.65;;;;;;;;;;4858400;29;20480;-76
2022/03/02 00:35:43;;;;;;;19.80;10.15;;;;;;;;;;4857902;29;20022;-76
2022/03/02 00:38:10;;;;;;;29.65;16.33;;;;;;;;;;4858281;29;20048;-76
2022/03/02 00:40:40;;;;;;;26.00;14.60;;;;;;;;;;4862037;29;20845;-76
2022/03/02 00:43:06;;;;;;;25.30;12.75;;;;;;;;;;4877034;29;20151;-76
2022/03/02 00:45:32;;;;;;;21.58;10.68;;;;;;;;;;4864048;29;20033;-76
2022/03/02 00:48:03;;;;;;;22.77;11.27;;;;;;;;;;4858491;29;20093;-76
2022/03/02 00:50:29;;;;;;;24.63;12.13;;;;;;;;;;4857902;29;20037;-76
2022/03/02 00:52:55;;;;;;;26.17;13.57;;;;;;;;;;4857841;29;20041;-76
2022/03/02 00:55:21;;;;;;;24.33;13.65;;;;;;;;;;4857950;29;20041;-76
2022/03/02 00:57:48;;;;;;;25.35;13.20;;;;;;;;;;4857799;29;20045;-76
2022/03/02 01:00:14;;;;;;;26.60;13.93;;;;;;;;;;4871100;29;20048;-75
2022/03/02 01:02:40;;;;;;;18.80;11.38;;;;;;;;;;4861753;29;20078;-76
2022/03/02 01:05:07;;;;;;;20.27;10.88;;;;;;;;;;4857957;29;20396;-76
2022/03/02 01:07:34;;;;;;;19.55;11.00;;;;;;;;;;4857504;29;20687;-76
2022/03/02 01:10:00;;;;;;;21.40;10.40;;;;;;;;;;4858011;29;20581;-76
2022/03/02 01:12:27;;;;;;;26.25;12.65;;;;;;;;;;4860053;29;20041;-76
2022/03/02 01:14:53;;;;;;;29.30;12.65;;;;;;;;;;4857745;29;20041;-75
2022/03/02 01:17:20;;;;;;;28.00;13.82;;;;;;;;;;4859892;29;20108;-76
2022/03/02 01:19:46;;;;;;;27.40;14.32;;;;;;;;;;4876403;29;20112;-75
2022/03/02 01:22:13;;;;;;;30.80;15.13;;;;;;;;;;4874878;29;20084;-76
2022/03/02 01:24:39;;;;;;;31.17;15.35;;;;;;;;;;4857768;29;20034;-75
2022/03/02 01:27:05;;;;;;;28.52;14.07;;;;;;;;;;4863477;29;20080;-76
2022/03/02 01:29:31;;;;;;;28.02;13.88;;;;;;;;;;4875735;29;20037;-76
2022/03/02 01:31:57;;;;;;;29.00;14.95;;;;;;;;;;4875989;29;20044;-76
2022/03/02 01:34:23;;;;;;;24.00;12.73;;;;;;;;;;4875408;29;20061;-76
2022/03/02 01:36:49;;;;;;;25.63;12.20;;;;;;;;;;4867289;29;20048;-76
2022/03/02 01:39:16;;;;;;;24.02;11.95;;;;;;;;;;4869214;29;20032;-76
2022/03/02 01:41:42;;;;;;;23.75;12.20;;;;;;;;;;4873211;29;20038;-76
2022/03/02 01:44:08;;;;;;;26.20;12.32;;;;;;;;;;4857570;29;20038;-75
2022/03/02 01:46:35;;;;;;;21.95;11.23;;;;;;;;;;4868834;29;20062;-76
2022/03/02 01:49:01;;;;;;;26.83;14.90;;;;;;;;;;4867856;29;20532;-75
2022/03/02 01:51:27;;;;;;;26.75;13.13;;;;;;;;;;4873129;29;20041;-76
2022/03/02 01:53:53;;;;;;;24.83;13.73;;;;;;;;;;4859123;29;20038;-75
2022/03/02 01:56:19;;;;;;;26.02;12.18;;;;;;;;;;4860011;29;20105;-76
2022/03/02 01:58:46;;;;;;;19.63;10.63;;;;;;;;;;4858947;29;20037;-76
2022/03/02 02:01:12;;;;;;;18.73;9.65;;;;;;;;;;4857463;29;20124;-76
2022/03/02 02:03:38;;;;;;;18.52;8.10;;;;;;;;;;4857573;29;20038;-75
2022/03/02 02:06:05;;;;;;;16.90;7.55;;;;;;;;;;4871420;29;20033;-76
2022/03/02 02:08:31;;;;;;;16.20;8.05;;;;;;;;;;4868731;29;20033;-76
2022/03/02 02:10:57;;;;;;;16.77;8.55;;;;;;;;;;4864469;29;20412;-76
2022/03/02 02:13:24;;;;;;;19.65;8.88;;;;;;;;;;4868246;29;20847;-75
2022/03/02 02:15:50;;;;;;;19.85;9.90;;;;;;;;;;4866250;29;20066;-76
2022/03/02 02:18:16;;;;;;;19.55;8.95;;;;;;;;;;4866849;29;20910;-76
2022/03/02 02:20:42;;;;;;;19.88;8.75;;;;;;;;;;4867418;29;20037;-76
2022/03/02 02:23:09;;;;;;;14.40;7.60;;;;;;;;;;4869790;29;20048;-76
2022/03/02 02:25:35;;;;;;;15.73;8.18;;;;;;;;;;4867239;29;20033;-76
2022/03/02 02:28:01;;;;;;;19.00;8.80;;;;;;;;;;4869437;29;20409;-75
2022/03/02 02:30:29;;;;;;;15.10;9.20;;;;;;;;;;4868101;29;20130;-75
2022/03/02 02:32:55;;;;;;;17.58;9.25;;;;;;;;;;4866922;29;20043;-75
2022/03/02 02:35:21;;;;;;;19.20;9.63;;;;;;;;;;4864983;29;20037;-76
2022/03/02 02:37:47;;;;;;;14.63;7.13;;;;;;;;;;4860449;29;20034;-76
2022/03/02 02:40:17;;;;;;;13.73;7.28;;;;;;;;;;4860311;29;20451;-75
2022/03/02 02:42:45;;;;;;;13.65;7.80;;;;;;;;;;4863001;29;20037;-76
2022/03/02 02:45:14;;;;;;;14.63;7.82;;;;;;;;;;4859985;29;20806;-76
2022/03/02 02:47:40;;;;;;;17.98;8.68;;;;;;;;;;4860169;29;20037;-75
2022/03/02 02:50:16;;;;;;;18.77;8.98;;;;;;;;;;4867612;29;20037;-76
2022/03/02 02:52:42;;;;;;;23.60;8.98;;;;;;;;;;4879032;29;20040;-75
2022/03/02 02:55:11;;;;;;;20.58;8.88;;;;;;;;;;4877978;29;20025;-76
2022/03/02 02:57:38;;;;;;;18.27;8.32;;;;;;;;;;4878999;29;20048;-75
2022/03/02 03:00:07;;;;;;;16.60;7.93;;;;;;;;;;4871139;29;20032;-76
2022/03/02 03:02:33;;;;;;;19.35;8.77;;;;;;;;;;4878640;29;20044;-75
2022/03/02 03:04:59;;;;;;;22.58;10.40;;;;;;;;;;4878182;29;20107;-76
2022/03/02 03:07:25;;;;;;;22.40;9.95;;;;;;;;;;4871078;29;20045;-76
2022/03/02 03:09:52;;;;;;;24.08;11.35;;;;;;;;;;4869093;29;20069;-76
2022/03/02 03:12:18;;;;;;;23.48;11.07;;;;;;;;;;4878434;29;20052;-76
2022/03/02 03:14:44;;;;;;;22.10;10.07;;;;;;;;;;4878107;29;20056;-76
2022/03/02 03:17:10;;;;;;;23.75;11.38;;;;;;;;;;4860405;29;20106;-76
2022/03/02 03:19:36;;;;;;;18.38;9.88;;;;;;;;;;4859949;29;20069;-76
2022/03/02 03:22:03;;;;;;;19.73;9.25;;;;;;;;;;4873253;29;20675;-76
2022/03/02 03:24:29;;;;;;;17.35;8.95;;;;;;;;;;4867215;29;20030;-76
2022/03/02 03:26:55;;;;;;;22.25;10.30;;;;;;;;;;4859171;29;20078;-76
2022/03/02 03:29:21;;;;;;;20.23;9.80;;;;;;;;;;4877998;29;20033;-76
2022/03/02 03:31:47;;;;;;;21.33;10.25;;;;;;;;;;4874137;29;20060;-75
2022/03/02 03:34:13;;;;;;;19.77;9.52;;;;;;;;;;4859347;29;20036;-76
2022/03/02 03:36:39;;;;;;;22.15;9.93;;;;;;;;;;4858782;29;20037;-76
2022/03/02 03:39:05;;;;;;;19.20;10.93;;;;;;;;;;4859887;29;20116;-75
2022/03/02 03:41:31;;;;;;;16.95;9.07;;;;;;;;;;4859157;29;20396;-76
2022/03/02 03:43:57;;;;;;;18.27;8.52;;;;;;;;;;4858903;29;20429;-75
2022/03/02 03:46:24;;;;;;;16.55;8.23;;;;;;;;;;4859328;29;20054;-76
2022/03/02 03:48:50;;;;;;;14.90;7.57;;;;;;;;;;4873031;29;20056;-76
2022/03/02 03:51:17;;;;;;;15.82;8.13;;;;;;;;;;4877510;29;20076;-76
2022/03/02 03:53:43;;;;;;;14.55;6.85;;;;;;;;;;4877755;29;20029;-75
2022/03/02 03:56:09;;;;;;;11.00;5.97;;;;;;;;;;4876555;29;20744;-76
2022/03/02 03:58:35;;;;;;;17.50;6.85;;;;;;;;;;4858801;29;20061;-76
2022/03/02 04:01:01;;;;;;;19.80;8.52;;;;;;;;;;4858881;29;20072;-76
2022/03/02 04:03:27;;;;;;;17.17;6.38;;;;;;;;;;4865828;29;20032;-76
2022/03/02 04:05:53;;;;;;;23.58;10.73;;;;;;;;;;4866570;29;20034;-76
2022/03/02 04:08:20;;;;;;;16.42;10.48;;;;;;;;;;4858291;29;20034;-76
2022/03/02 04:10:46;;;;;;;18.95;10.25;;;;;;;;;;4871667;29;20411;-75
2022/03/02 04:13:12;;;;;;;21.58;9.73;;;;;;;;;;4858598;29;20041;-75
2022/03/02 04:15:39;;;;;;;17.40;8.30;;;;;;;;;;4875867;29;20041;-76
2022/03/02 04:18:06;;;;;;;17.48;7.70;;;;;;;;;;4858990;29;20109;-76
2022/03/02 04:20:32;;;;;;;16.58;7.40;;;;;;;;;;4864117;29;20460;-76
2022/03/02 04:22:59;;;;;;;16.20;7.88;;;;;;;;;;4863247;29;20052;-76
2022/03/02 04:25:25;;;;;;;18.05;9.13;;;;;;;;;;4861003;29;20045;-75
2022/03/02 04:27:51;;;;;;;18.27;10.05;;;;;;;;;;4873435;29;20547;-76
2022/03/02 04:30:17;;;;;;;19.67;10.45;;;;;;;;;;4862064;29;20056;-76
2022/03/02 04:32:43;;;;;;;18.23;10.02;;;;;;;;;;4861928;29;20140;-76
2022/03/02 04:35:10;;;;;;;19.42;9.00;;;;;;;;;;4864374;29;20069;-76
2022/03/02 04:37:36;;;;;;;21.60;10.82;;;;;;;;;;4871343;29;20048;-76
2022/03/02 04:40:03;;;;;;;18.90;9.63;;;;;;;;;;4860085;29;20478;-76
2022/03/02 04:42:29;;;;;;;21.13;11.27;;;;;;;;;;4858205;29;20448;-76
2022/03/02 04:44:55;;;;;;;28.80;12.75;;;;;;;;;;4863118;29;20039;-76
2022/03/02 04:47:21;;;;;;;21.65;10.82;;;;;;;;;;4852069;29;20037;-76
2022/03/02 04:49:47;;;;;;;19.45;10.80;;;;;;;;;;4857950;29;20631;-76
2022/03/02 04:52:13;;;;;;;22.27;10.23;;;;;;;;;;4857956;29;20124;-75
2022/03/02 04:57:24;;;;;;;17.25;8.63;;;;;;;;;;4844378;29;20105;-76
2022/03/02 04:59:50;;;;;;;19.55;8.20;;;;;;;;;;4857150;29;20110;-76
2022/03/02 05:02:17;;;;;;;23.95;10.23;;;;;;;;;;4841149;29;20753;-76
2022/03/02 05:04:43;;;;;;;17.45;8.48;;;;;;;;;;4857918;29;20494;-76
2022/03/02 05:07:09;;;;;;;19.65;8.13;;;;;;;;;;4857927;29;20033;-76
2022/03/02 05:09:35;;;;;;;19.77;9.55;;;;;;;;;;4857577;29;20033;-75
2022/03/02 05:12:02;;;;;;;24.75;12.68;;;;;;;;;;4857869;29;20049;-76
2022/03/02 05:14:28;;;;;;;23.00;11.05;;;;;;;;;;4857174;29;20033;-76
2022/03/02 05:16:54;;;;;;;21.33;10.95;;;;;;;;;;4857674;29;20033;-75
2022/03/02 05:19:20;;;;;;;24.95;12.02;;;;;;;;;;4856369;29;20038;-76
2022/03/02 05:21:47;;;;;;;25.10;13.02;;;;;;;;;;4849207;29;20053;-76
2022/03/02 05:24:14;;;;;;;23.52;12.30;;;;;;;;;;4839145;29;20036;-75
2022/03/02 05:26:40;;;;;;;21.70;12.27;;;;;;;;;;4839345;29;20030;-76
2022/03/02 05:29:06;;;;;;;19.58;10.07;;;;;;;;;;4839685;29;20457;-76
2022/03/02 05:31:32;;;;;;;24.73;11.88;;;;;;;;;;4844691;29;20044;-75
2022/03/02 05:33:58;;;;;;;21.50;11.38;;;;;;;;;;4843335;29;20120;-75
2022/03/02 05:36:25;;;;;;;22.40;11.00;;;;;;;;;;4856223;29;20475;-75
2022/03/02 05:38:52;;;;;;;23.15;10.50;;;;;;;;;;4852924;29;20048;-75
2022/03/02 05:41:18;;;;;;;20.80;9.90;;;;;;;;;;4849749;29;20047;-75
2022/03/02 05:43:44;;;;;;;18.55;9.27;;;;;;;;;;4857742;29;20040;-75
2022/03/02 05:46:10;;;;;;;20.95;8.88;;;;;;;;;;4848581;29;20524;-76
2022/03/02 05:48:37;;;;;;;22.13;9.50;;;;;;;;;;4843100;29;20038;-75
2022/03/02 05:51:03;;;;;;;19.70;10.30;;;;;;;;;;4848257;29;20079;-75
2022/03/02 05:53:29;;;;;;;21.55;9.60;;;;;;;;;;4840909;29;20042;-75
2022/03/02 05:55:55;;;;;;;17.75;9.68;;;;;;;;;;4840464;29;20121;-75
2022/03/02 05:58:21;;;;;;;22.70;9.63;;;;;;;;;;4842384;29;20108;-75
2022/03/02 06:00:47;;;;;;;23.52;9.98;;;;;;;;;;4857404;29;20117;-76
2022/03/02 06:03:14;;;;;;;22.80;11.57;;;;;;;;;;4851251;29;20061;-75
2022/03/02 06:05:40;;;;;;;24.95;12.23;;;;;;;;;;4854380;29;20491;-76
2022/03/02 06:08:07;;;;;;;24.30;11.30;;;;;;;;;;4856724;29;20495;-75
2022/03/02 06:10:34;;;;;;;27.75;12.45;;;;;;;;;;4845828;29;20042;-75
2022/03/02 06:13:00;;;;;;;24.27;10.27;;;;;;;;;;4853472;29;20042;-76
2022/03/02 06:15:26;;;;;;;24.13;10.40;;;;;;;;;;4845794;29;20046;-76
2022/03/02 06:17:53;;;;;;;20.55;9.85;;;;;;;;;;4853648;29;20050;-75
2022/03/02 06:20:19;;;;;;;22.98;10.38;;;;;;;;;;4852563;29;20034;-76
2022/03/02 06:22:46;;;;;;;25.63;10.35;;;;;;;;;;4851819;29;20042;-75
2022/03/02 06:25:12;;;;;;;23.20;9.90;;;;;;;;;;4842517;29;20518;-75
2022/03/02 06:27:38;;;;;;;23.27;10.73;;;;;;;;;;4855367;29;20034;-76
2022/03/02 06:30:08;;;;;;;30.02;11.15;;;;;;;;;;4856596;29;20849;-76
2022/03/02 06:32:35;;;;;;;23.05;11.40;;;;;;;;;;4848414;29;20046;-75
2022/03/02 06:35:01;;;;;;;27.63;13.25;;;;;;;;;;4855854;29;20466;-76
2022/03/02 06:37:28;;;;;;;28.50;12.65;;;;;;;;;;4855375;29;20097;-75
2022/03/02 06:39:54;;;;;;;29.10;14.77;;;;;;;;;;4850157;29;20117;-75
2022/03/02 06:42:26;;;;;;;32.25;15.23;;;;;;;;;;4848813;29;20041;-76
2022/03/02 06:44:56;;;;;;;34.23;15.67;;;;;;;;;;4847818;29;20037;-76
2022/03/02 06:47:27;;;;;;;36.75;18.58;;;;;;;;;;4845905;29;20734;-76
2022/03/02 06:49:56;;;;;;;31.40;17.25;;;;;;;;;;4850688;29;20034;-77
2022/03/02 06:52:22;;;;;;;38.35;18.98;;;;;;;;;;4854993;29;20122;-77
2022/03/02 06:54:49;;;;;;;48.72;22.42;;;;;;;;;;4848495;29;20088;-77
2022/03/02 06:57:16;;;;;;;44.15;23.20;;;;;;;;;;4855395;29;20081;-76
2022/03/02 06:59:43;;;;;;;41.17;21.30;;;;;;;;;;4851928;29;20551;-76
2022/03/02 07:02:11;;;;;;;52.25;21.83;;;;;;;;;;4854017;29;20046;-77
2022/03/02 07:04:42;;;;;;;49.10;21.48;;;;;;;;;;4854631;29;20033;-77
2022/03/02 07:07:09;;;;;;;42.83;22.27;;;;;;;;;;4860029;29;20472;-77
2022/03/02 07:09:35;;;;;;;50.15;21.83;;;;;;;;;;4857242;29;20483;-77
2022/03/02 07:12:01;;;;;;;50.00;22.73;;;;;;;;;;4860085;29;20033;-76
2022/03/02 07:14:31;;;;;;;41.25;17.92;;;;;;;;;;4855132;29;20064;-76
2022/03/02 07:16:58;;;;;;;38.83;16.88;;;;;;;;;;4853079;29;20094;-77
2022/03/02 07:19:25;;;;;;;38.45;15.82;;;;;;;;;;4849071;29;20049;-77
2022/03/02 07:21:52;;;;;;;33.85;14.90;;;;;;;;;;4852325;29;20496;-76
2022/03/02 07:24:19;;;;;;;33.10;14.30;;;;;;;;;;4859519;29;20157;-76
2022/03/02 07:26:46;;;;;;;32.35;15.25;;;;;;;;;;4853097;29;20030;-77
2022/03/02 07:29:14;;;;;;;31.02;15.23;;;;;;;;;;4857662;29;20033;-77
2022/03/02 07:31:41;;;;;;;28.35;14.32;;;;;;;;;;4851261;29;20465;-77
2022/03/02 07:34:11;;;;;;;28.45;12.95;;;;;;;;;;4849986;29;20410;-76
2022/03/02 07:36:38;;;;;;;24.33;12.57;;;;;;;;;;4850654;29;20516;-76
2022/03/02 07:39:04;;;;;;;25.48;12.35;;;;;;;;;;4860094;29;20044;-76
2022/03/02 07:41:30;;;;;;;20.33;11.70;;;;;;;;;;4857667;29;20153;-77
2022/03/02 07:43:56;;;;;;;35.60;15.20;;;;;;;;;;4857234;29;20452;-76
2022/03/02 07:46:22;;;;;;;27.75;13.70;;;;;;;;;;4851800;29;20044;-77
2022/03/02 07:48:48;;;;;;;23.50;12.70;;;;;;;;;;4851944;29;20108;-76
2022/03/02 07:51:15;;;;;;;29.52;12.73;;;;;;;;;;4846433;29;20041;-77
2022/03/02 07:53:42;;;;;;;29.92;12.25;;;;;;;;;;4856760;29;20030;-77
2022/03/02 07:56:09;;;;;;;20.92;10.52;;;;;;;;;;4857043;29;20052;-76
2022/03/02 07:58:41;;;;;;;35.95;11.30;;;;;;;;;;4852110;29;20030;-76
2022/03/02 08:01:08;;;;;;;33.72;12.07;;;;;;;;;;4848886;29;20082;-76
2022/03/02 08:03:40;;;;;;;21.52;11.10;;;;;;;;;;4855169;29;20426;-76
2022/03/02 08:06:07;;;;;;;19.52;10.18;;;;;;;;;;4856762;29;20511;-76
2022/03/02 08:08:35;;;;;;;29.55;11.77;;;;;;;;;;4857459;29;20021;-76
2022/03/02 08:11:01;;;;;;;25.20;11.77;;;;;;;;;;4855432;29;20107;-77
2022/03/02 08:13:30;;;;;;;23.65;12.50;;;;;;;;;;4853390;29;20049;-76
2022/03/02 08:15:56;;;;;;;19.42;12.10;;;;;;;;;;4851900;29;20052;-77
2022/03/02 08:18:22;;;;;;;18.15;8.82;;;;;;;;;;4854893;29;20049;-76
2022/03/02 08:20:49;;;;;;;16.60;9.65;;;;;;;;;;4849518;29;20034;-77
2022/03/02 08:23:16;;;;;;;21.23;12.38;;;;;;;;;;4854729;29;20047;-77
2022/03/02 08:25:42;;;;;;;23.65;11.80;;;;;;;;;;4835552;29;20033;-76
2022/03/02 08:28:09;;;;;;;21.13;7.57;;;;;;;;;;4855273;29;20033;-76
2022/03/02 08:30:36;;;;;;;13.23;5.15;;;;;;;;;;4855610;29;20037;-76
2022/03/02 08:33:02;;;;;;;12.13;5.13;;;;;;;;;;4854625;29;20037;-76
2022/03/02 08:35:34;;;;;;;11.88;5.18;;;;;;;;;;4845297;29;20046;-76
2022/03/02 08:38:01;;;;;;;23.40;11.85;;;;;;;;;;4858766;29;20040;-76
2022/03/02 08:40:27;;;;;;;20.05;9.00;;;;;;;;;;4850089;29;20045;-76
2022/03/02 08:42:53;;;;;;;20.70;8.38;;;;;;;;;;4853596;29;20034;-76
2022/03/02 08:45:20;;;;;;;15.13;5.70;;;;;;;;;;4847068;29;20033;-76
2022/03/02 08:47:46;;;;;;;13.80;5.22;;;;;;;;;;4857733;29;20033;-77
2022/03/02 08:50:12;;;;;;;13.65;6.50;;;;;;;;;;4858056;29;20556;-76
2022/03/02 08:52:38;;;;;;;13.75;6.93;;;;;;;;;;4847720;29;20041;-74
2022/03/02 08:55:08;;;;;;;16.88;6.88;;;;;;;;;;4847970;29;20052;-77
2022/03/02 08:57:34;;;;;;;16.92;7.20;;;;;;;;;;4848787;29;20038;-74
2022/03/02 09:00:02;;;;;;;19.23;6.68;;;;;;;;;;4856411;29;20068;-77
2022/03/02 09:02:29;;;;;;;14.48;5.75;;;;;;;;;;4856075;29;20029;-76
2022/03/02 09:04:59;;;;;;;16.48;6.63;;;;;;;;;;4843416;29;20088;-76
2022/03/02 09:07:25;;;;;;;13.90;5.53;;;;;;;;;;4854122;29;20558;-76
2022/03/02 09:09:51;;;;;;;13.73;5.50;;;;;;;;;;4850607;29;20034;-76
2022/03/02 09:12:17;;;;;;;10.55;4.70;;;;;;;;;;4849827;29;20110;-76
2022/03/02 09:14:44;;;;;;;12.05;5.50;;;;;;;;;;4852571;29;20369;-76
2022/03/02 09:17:10;;;;;;;15.13;6.00;;;;;;;;;;4852940;29;20401;-76
2022/03/02 09:19:36;;;;;;;13.93;6.32;;;;;;;;;;4840578;29;20050;-76
2022/03/02 09:22:03;;;;;;;10.93;5.63;;;;;;;;;;4853765;29;20038;-76
2022/03/02 09:24:30;;;;;;;15.32;6.78;;;;;;;;;;4849848;29;20113;-76
2022/03/02 09:26:57;;;;;;;16.48;7.07;;;;;;;;;;4848451;29;20061;-76
2022/03/02 09:29:27;;;;;;;14.88;5.85;;;;;;;;;;4856313;29;20476;-76
2022/03/02 09:31:56;;;;;;;15.20;4.95;;;;;;;;;;4840421;29;20090;-75
2022/03/02 09:34:24;;;;;;;21.63;7.65;;;;;;;;;;4838791;29;20477;-76
2022/03/02 09:36:50;;;;;;;12.75;5.97;;;;;;;;;;4847589;29;20404;-76
2022/03/02 09:39:16;;;;;;;14.00;6.65;;;;;;;;;;4839853;29;20149;-76
2022/03/02 09:41:49;;;;;;;16.02;6.22;;;;;;;;;;4843133;29;20135;-76
2022/03/02 09:44:17;;;;;;;15.30;6.88;;;;;;;;;;4848601;29;20389;-76
2022/03/02 09:46:48;;;;;;;11.35;6.03;;;;;;;;;;4844796;29;20057;-76
2022/03/02 09:49:17;;;;;;;12.13;6.70;;;;;;;;;;4849373;29;20044;-76
2022/03/02 09:51:43;;;;;;;17.63;6.70;;;;;;;;;;4845275;29;20049;-76
2022/03/02 09:54:10;;;;;;;16.15;6.30;;;;;;;;;;4853738;29;20074;-76
2022/03/02 09:56:36;;;;;;;12.50;6.53;;;;;;;;;;4849000;29;20045;-76
2022/03/02 09:59:04;;;;;;;14.90;4.88;;;;;;;;;;4850560;29;20094;-76
2022/03/02 10:01:31;;;;;;;11.57;5.00;;;;;;;;;;4857156;29;20066;-76
2022/03/02 10:03:59;;;;;;;13.10;6.07;;;;;;;;;;4848730;29;20037;-76
2022/03/02 10:06:26;;;;;;;13.60;6.35;;;;;;;;;;4843292;29;20030;-76
2022/03/02 10:08:54;;;;;;;12.07;5.75;;;;;;;;;;4851227;29;20037;-76
2022/03/02 10:11:24;;;;;;;17.42;6.10;;;;;;;;;;4847900;29;20034;-76
2022/03/02 10:13:50;;;;;;;19.25;7.63;;;;;;;;;;4843986;29;20037;-76
2022/03/02 10:16:25;;;;;;;14.32;6.78;;;;;;;;;;4856993;29;20032;-76
2022/03/02 10:18:58;;;;;;;11.77;4.88;;;;;;;;;;4839549;29;20089;-74
2022/03/02 10:21:28;;;;;;;11.65;3.55;;;;;;;;;;4843928;29;20042;-76
2022/03/02 10:23:57;;;;;;;14.30;4.78;;;;;;;;;;4852576;29;20484;-76
2022/03/02 10:26:27;;;;;;;19.38;5.07;;;;;;;;;;4857809;29;20453;-76
2022/03/02 10:29:30;;;;;;;11.20;5.05;;;;;;;;;;4860451;29;20141;-76
2022/03/02 10:31:59;;;;;;;18.80;5.05;;;;;;;;;;4766602;30;20040;-76
2022/03/02 10:34:30;;;;;;;17.50;5.57;;;;;;;;;;4832886;29;20056;-76
2022/03/02 10:37:16;;;;;;;12.85;4.88;;;;;;;;;;4850607;29;20038;-76
2022/03/02 10:40:05;;;;;;;15.90;5.93;;;;;;;;;;4846300;29;20171;-76
2022/03/02 10:42:33;;;;;;;13.23;5.22;;;;;;;;;;4846574;29;20037;-76
2022/03/02 10:45:08;;;;;;;16.48;5.88;;;;;;;;;;4855005;29;20392;-74
2022/03/02 10:47:36;;;;;;;12.25;5.75;;;;;;;;;;4854863;29;20039;-74
2022/03/02 10:50:03;;;;;;;12.23;6.05;;;;;;;;;;4857720;29;20396;-74
2022/03/02 10:52:31;;;;;;;13.82;5.60;;;;;;;;;;4852276;29;20070;-76
2022/03/02 10:54:57;;;;;;;13.75;5.20;;;;;;;;;;4856436;29;20037;-74
2022/03/02 10:57:25;;;;;;;15.10;5.95;;;;;;;;;;4850895;29;20723;-74
2022/03/02 10:59:53;;;;;;;16.75;5.85;;;;;;;;;;4848697;29;20500;-74
2022/03/02 11:02:22;;;;;;;13.90;6.70;;;;;;;;;;4854018;29;20041;-76
2022/03/02 11:04:48;;;;;;;16.73;6.60;;;;;;;;;;4844450;29;20038;-76
2022/03/02 11:07:16;;;;;;;14.27;6.30;;;;;;;;;;4845099;29;20074;-76
2022/03/02 11:09:48;;;;;;;17.40;7.32;;;;;;;;;;4844096;29;20089;-76
2022/03/02 11:12:15;;;;;;;29.70;15.27;;;;;;;;;;4859322;29;20113;-76
2022/03/02 11:15:02;;;;;;;21.30;9.85;;;;;;;;;;4850111;29;20057;-76
2022/03/02 11:17:28;;;;;;;18.80;9.00;;;;;;;;;;4854912;29;20128;-76
2022/03/02 11:19:55;;;;;;;13.75;7.30;;;;;;;;;;4855167;29;20030;-76
2022/03/02 11:22:22;;;;;;;14.50;7.32;;;;;;;;;;4852214;29;20418;-76
2022/03/02 11:24:48;;;;;;;14.30;8.02;;;;;;;;;;4856837;29;20085;-76
2022/03/02 11:27:43;;;;;;;17.48;8.35;;;;;;;;;;4847511;29;20132;-76
2022/03/02 11:30:14;;;;;;;14.43;7.00;;;;;;;;;;4842355;29;20105;-76
2022/03/02 11:32:41;;;;;;;18.30;8.73;;;;;;;;;;4844298;29;20119;-76
2022/03/02 11:35:09;;;;;;;18.00;7.97;;;;;;;;;;4841228;29;20050;-76
2022/03/02 11:37:36;;;;;;;15.68;8.43;;;;;;;;;;4844797;29;20082;-76
2022/03/02 11:40:04;;;;;;;18.48;9.13;;;;;;;;;;4856108;29;20149;-77
2022/03/02 11:42:32;;;;;;;16.35;8.23;;;;;;;;;;4855354;29;20045;-76
2022/03/02 11:44:59;;;;;;;16.85;9.35;;;;;;;;;;4859272;29;20021;-76
2022/03/02 11:47:32;;;;;;;15.45;9.40;;;;;;;;;;4851132;29;20037;-76
2022/03/02 11:49:58;;;;;;;14.68;8.43;;;;;;;;;;4851886;29;20083;-76
2022/03/02 11:52:32;;;;;;;18.73;8.68;;;;;;;;;;4857792;29;20049;-76
2022/03/02 11:54:59;;;;;;;16.38;8.10;;;;;;;;;;4844769;29;20146;-76
2022/03/02 11:57:26;;;;;;;16.10;8.85;;;;;;;;;;4841246;29;20041;-76
2022/03/02 12:00:06;;;;;;;13.55;8.02;;;;;;;;;;4854814;29;20163;-76
2022/03/02 12:02:40;;;;;;;16.00;9.40;;;;;;;;;;4852757;29;20037;-76
2022/03/02 12:05:06;;;;;;;15.93;8.60;;;;;;;;;;4854099;29;20061;-76
2022/03/02 12:07:51;;;;;;;16.10;8.70;;;;;;;;;;4854368;29;20112;-76
2022/03/02 12:10:28;;;;;;;16.08;9.23;;;;;;;;;;4842885;29;20041;-76
2022/03/02 12:12:55;;;;;;;15.32;9.02;;;;;;;;;;4847483;29;20033;-76
2022/03/02 12:15:22;;;;;;;16.08;10.57;;;;;;;;;;4855001;29;20045;-76
2022/03/02 12:17:51;;;;;;;17.83;10.75;;;;;;;;;;4853073;29;20056;-76
2022/03/02 12:20:25;;;;;;;16.38;9.57;;;;;;;;;;4858416;29;20073;-76
2022/03/02 12:22:53;;;;;;;15.82;8.20;;;;;;;;;;4843048;29;20045;-76
2022/03/02 12:25:21;;;;;;;14.68;9.15;;;;;;;;;;4839963;29;20042;-76
2022/03/02 12:27:58;;;;;;;15.85;8.77;;;;;;;;;;4841959;29;20084;-76
2022/03/02 12:30:24;;;;;;;15.77;9.00;;;;;;;;;;4849853;29;20041;-76
2022/03/02 12:32:52;;;;;;;15.75;9.18;;;;;;;;;;4854726;29;20049;-76
2022/03/02 12:35:22;;;;;;;18.20;10.18;;;;;;;;;;4850687;29;20044;-76
2022/03/02 12:37:48;;;;;;;17.02;8.55;;;;;;;;;;4843275;29;20076;-76
2022/03/02 12:40:14;;;;;;;14.20;8.75;;;;;;;;;;4856903;29;20773;-76
2022/03/02 12:42:42;;;;;;;19.52;8.82;;;;;;;;;;4843505;29;20036;-76
2022/03/02 12:45:08;;;;;;;17.23;9.27;;;;;;;;;;4848864;29;20046;-76
2022/03/02 12:47:35;;;;;;;20.50;8.60;;;;;;;;;;4857966;29;20086;-76
2022/03/02 12:50:04;;;;;;;20.25;9.40;;;;;;;;;;4857126;29;20042;-76
2022/03/02 12:52:30;;;;;;;17.75;9.40;;;;;;;;;;4857906;29;20464;-76
2022/03/02 12:54:57;;;;;;;18.38;8.93;;;;;;;;;;4847527;29;20366;-76
2022/03/02 12:57:24;;;;;;;18.85;8.80;;;;;;;;;;4840926;29;20038;-76
2022/03/02 12:59:50;;;;;;;16.55;9.05;;;;;;;;;;4841566;29;20041;-76
2022/03/02 13:02:18;;;;;;;18.83;9.88;;;;;;;;;;4848647;29;20081;-76
2022/03/02 13:05:03;;;;;;;17.13;8.73;;;;;;;;;;4844310;29;20037;-76
2022/03/02 13:07:29;;;;;;;17.65;9.63;;;;;;;;;;4857032;29;20502;-76
2022/03/02 13:09:56;;;;;;;23.15;9.07;;;;;;;;;;4852137;29;20042;-76
2022/03/02 13:12:41;;;;;;;14.88;8.80;;;;;;;;;;4855444;29;20040;-76
2022/03/02 13:15:21;;;;;;;21.15;9.38;;;;;;;;;;4847740;29;20518;-76
2022/03/02 13:17:47;;;;;;;19.90;9.00;;;;;;;;;;4856316;29;20511;-76
2022/03/02 13:20:20;;;;;;;18.33;9.23;;;;;;;;;;4838850;29;20041;-76
2022/03/02 13:22:47;;;;;;;20.23;9.90;;;;;;;;;;4851028;29;20041;-76
2022/03/02 13:25:14;;;;;;;16.95;9.13;;;;;;;;;;4846986;29;20472;-76
2022/03/02 13:28:05;;;;;;;15.65;8.65;;;;;;;;;;4838624;29;20029;-76
2022/03/02 13:30:31;;;;;;;20.65;9.45;;;;;;;;;;4846545;29;20556;-76
2022/03/02 13:33:05;;;;;;;15.50;8.50;;;;;;;;;;4853403;29;20037;-76
2022/03/02 13:35:32;;;;;;;16.60;8.75;;;;;;;;;;4857835;29;20086;-76
2022/03/02 13:38:06;;;;;;;14.65;8.52;;;;;;;;;;4846823;29;20786;-76
2022/03/02 13:40:35;;;;;;;16.02;8.82;;;;;;;;;;4851498;29;20038;-76
2022/03/02 13:43:07;;;;;;;18.75;8.77;;;;;;;;;;4850531;29;20417;-76
2022/03/02 13:45:34;;;;;;;17.85;8.63;;;;;;;;;;4855939;29;20039;-76
2022/03/02 13:48:13;;;;;;;16.30;9.15;;;;;;;;;;4852252;29;20053;-76
2022/03/02 13:50:59;;;;;;;17.60;9.52;;;;;;;;;;4822657;29;20034;-76
2022/03/02 13:53:34;;;;;;;18.92;9.02;;;;;;;;;;4851384;29;20061;-76
2022/03/02 13:56:07;;;;;;;15.35;8.65;;;;;;;;;;4853219;29;20046;-76
2022/03/02 13:58:34;;;;;;;19.23;9.07;;;;;;;;;;4845975;29;20038;-76
2022/03/02 14:01:35;;;;;;;15.85;8.45;;;;;;;;;;4853093;29;20076;-76
2022/03/02 14:04:03;;;;;;;21.00;9.57;;;;;;;;;;4792100;29;20050;-76
2022/03/02 14:06:30;;;;;;;16.15;8.63;;;;;;;;;;4843631;29;20073;-76
2022/03/02 14:08:56;;;;;;;20.15;9.13;;;;;;;;;;4856410;29;20056;-76
2022/03/02 14:11:31;;;;;;;14.23;8.10;;;;;;;;;;4852486;29;20039;-76
2022/03/02 14:13:57;;;;;;;18.48;8.85;;;;;;;;;;4852579;29;20046;-76
2022/03/02 14:16:23;;;;;;;14.20;8.23;;;;;;;;;;4858718;29;20063;-76
2022/03/02 14:19:06;;;;;;;13.80;8.23;;;;;;;;;;4855981;29;20060;-76
2022/03/02 14:21:33;;;;;;;16.85;8.48;;;;;;;;;;4856360;29;20041;-76
2022/03/02 14:24:08;;;;;;;15.00;7.93;;;;;;;;;;4846141;29;20077;-76
2022/03/02 14:26:34;;;;;;;16.95;8.40;;;;;;;;;;4846918;29;20035;-76
2022/03/02 14:29:01;;;;;;;15.23;8.13;;;;;;;;;;4852628;29;20449;-76
2022/03/02 14:31:27;;;;;;;14.85;7.68;;;;;;;;;;4855749;29;20042;-76
2022/03/02 14:33:57;;;;;;;15.93;7.45;;;;;;;;;;4848870;29;20037;-76